sensor_id;sensor_type;location;lat;lon;timestamp;pressure;altitude;pressure_sealevel;temperature;humidity
58473;BME280;44775;51.564;5.460;2023-05-08T00:01:53;101743.78;;;13.50;100.00
58473;BME280;44775;51.564;5.460;2023-05-08T00:04:18;101739.56;;;13.48;100.00
58473;BME280;44775;51.564;5.460;2023-05-08T00:06:45;101740.75;;;13.45;100.00
58473;BME280;44775;51.564;5.460;2023-05-08T00:09:10;101751.16;;;13.40;100.00
58473;BME280;44775;51.564;5.460;2023-05-08T00:11:36;101752.00;;;13.40;100.00
58473;BME280;44775;51.564;5.460;2023-05-08T00:14:02;101754.50;;;13.42;100.00
58473;BME280;44775;51.564;5.460;2023-05-08T00:16:27;101755.69;;;13.48;100.00
58473;BME280;44775;51.564;5.460;2023-05-08T00:18:53;101744.25;;;13.45;100.00
58473;BME280;44775;51.564;5.460;2023-05-08T00:21:19;101745.28;;;13.44;100.00
58473;BME280;44775;51.564;5.460;2023-05-08T00:23:44;101744.94;;;13.48;100.00
58473;BME280;44775;51.564;5.460;2023-05-08T00:26:10;101743.44;;;13.45;100.00
58473;BME280;44775;51.564;5.460;2023-05-08T00:28:35;101741.25;;;13.40;100.00
58473;BME280;44775;51.564;5.460;2023-05-08T00:31:00;101741.06;;;13.34;100.00
58473;BME280;44775;51.564;5.460;2023-05-08T00:33:26;101737.88;;;13.30;100.00
58473;BME280;44775;51.564;5.460;2023-05-08T00:36:02;101745.75;;;13.32;100.00
58473;BME280;44775;51.564;5.460;2023-05-08T00:38:32;101740.22;;;13.33;100.00
58473;BME280;44775;51.564;5.460;2023-05-08T00:40:58;101739.72;;;13.30;100.00
58473;BME280;44775;51.564;5.460;2023-05-08T00:43:24;101734.50;;;13.28;100.00
58473;BME280;44775;51.564;5.460;2023-05-08T00:45:52;101736.34;;;13.28;100.00
58473;BME280;44775;51.564;5.460;2023-05-08T00:48:19;101737.50;;;13.25;100.00
58473;BME280;44775;51.564;5.460;2023-05-08T00:50:45;101737.50;;;13.25;100.00
58473;BME280;44775;51.564;5.460;2023-05-08T00:53:11;101737.38;;;13.27;100.00
58473;BME280;44775;51.564;5.460;2023-05-08T00:55:37;101733.16;;;13.24;100.00
58473;BME280;44775;51.564;5.460;2023-05-08T00:58:03;101732.63;;;13.20;100.00
58473;BME280;44775;51.564;5.460;2023-05-08T01:00:30;101727.72;;;13.16;100.00
58473;BME280;44775;51.564;5.460;2023-05-08T01:02:56;101725.03;;;13.16;100.00
58473;BME280;44775;51.564;5.460;2023-05-08T01:05:21;101728.09;;;13.13;100.00
58473;BME280;44775;51.564;5.460;2023-05-08T01:07:47;101726.22;;;13.13;100.00
58473;BME280;44775;51.564;5.460;2023-05-08T01:10:12;101733.09;;;13.16;100.00
58473;BME280;44775;51.564;5.460;2023-05-08T01:12:54;101731.28;;;13.16;100.00
58473;BME280;44775;51.564;5.460;2023-05-08T01:15:28;101733.09;;;13.16;100.00
58473;BME280;44775;51.564;5.460;2023-05-08T01:20:58;101730.41;;;13.16;100.00
58473;BME280;44775;51.564;5.460;2023-05-08T01:23:51;101725.91;;;13.16;100.00
58473;BME280;44775;51.564;5.460;2023-05-08T01:32:18;101730.09;;;13.19;100.00
58473;BME280;44775;51.564;5.460;2023-05-08T01:35:00;101726.75;;;13.17;100.00
58473;BME280;44775;51.564;5.460;2023-05-08T01:38:02;101737.16;;;13.20;100.00
58473;BME280;44775;51.564;5.460;2023-05-08T01:40:44;101733.28;;;13.22;100.00
58473;BME280;44775;51.564;5.460;2023-05-08T01:43:42;101730.59;;;13.22;100.00
58473;BME280;44775;51.564;5.460;2023-05-08T01:46:13;101728.09;;;13.21;100.00
58473;BME280;44775;51.564;5.460;2023-05-08T01:48:48;101731.78;;;13.20;100.00
58473;BME280;44775;51.564;5.460;2023-05-08T01:51:20;101726.75;;;13.17;100.00
58473;BME280;44775;51.564;5.460;2023-05-08T01:53:50;101731.78;;;13.20;100.00
58473;BME280;44775;51.564;5.460;2023-05-08T01:56:20;101730.91;;;13.19;100.00
58473;BME280;44775;51.564;5.460;2023-05-08T01:58:48;101729.94;;;13.20;100.00
58473;BME280;44775;51.564;5.460;2023-05-08T02:01:17;101736.28;;;13.19;100.00
58473;BME280;44775;51.564;5.460;2023-05-08T02:03:44;101737.81;;;13.22;100.00
58473;BME280;44775;51.564;5.460;2023-05-08T02:06:12;101744.88;;;13.23;100.00
58473;BME280;44775;51.564;5.460;2023-05-08T02:08:41;101744.88;;;13.23;100.00
58473;BME280;44775;51.564;5.460;2023-05-08T02:11:09;101751.94;;;13.24;100.00
58473;BME280;44775;51.564;5.460;2023-05-08T02:13:35;101748.94;;;13.27;100.00
58473;BME280;44775;51.564;5.460;2023-05-08T02:16:08;101743.91;;;13.24;100.00
58473;BME280;44775;51.564;5.460;2023-05-08T02:18:35;101740.16;;;13.17;100.00
58473;BME280;44775;51.564;5.460;2023-05-08T02:21:03;101748.22;;;13.17;100.00
58473;BME280;44775;51.564;5.460;2023-05-08T02:23:30;101745.69;;;13.15;100.00
58473;BME280;44775;51.564;5.460;2023-05-08T02:25:57;101738.97;;;13.11;100.00
58473;BME280;44775;51.564;5.460;2023-05-08T02:28:24;101742.47;;;13.12;100.00
58473;BME280;44775;51.564;5.460;2023-05-08T02:30:51;101743.50;;;13.11;100.00
58473;BME280;44775;51.564;5.460;2023-05-08T02:33:18;101741.13;;;13.08;100.00
58473;BME280;44775;51.564;5.460;2023-05-08T02:35:47;101746.81;;;13.05;100.00
58473;BME280;44775;51.564;5.460;2023-05-08T02:38:15;101747.00;;;13.03;100.00
58473;BME280;44775;51.564;5.460;2023-05-08T02:40:46;101751.19;;;13.06;100.00
58473;BME280;44775;51.564;5.460;2023-05-08T02:43:12;101746.13;;;13.03;100.00
58473;BME280;44775;51.564;5.460;2023-05-08T02:46:00;101750.53;;;13.04;100.00
58473;BME280;44775;51.564;5.460;2023-05-08T02:48:35;101747.16;;;13.02;100.00
58473;BME280;44775;51.564;5.460;2023-05-08T02:51:13;101751.84;;;12.99;100.00
58473;BME280;44775;51.564;5.460;2023-05-08T02:53:44;101749.81;;;13.02;100.00
58473;BME280;44775;51.564;5.460;2023-05-08T02:56:17;101737.44;;;13.00;100.00
58473;BME280;44775;51.564;5.460;2023-05-08T02:58:54;101737.94;;;13.04;100.00
58473;BME280;44775;51.564;5.460;2023-05-08T03:04:24;101738.25;;;13.01;100.00
58473;BME280;44775;51.564;5.460;2023-05-08T03:06:51;101744.47;;;13.02;100.00
58473;BME280;44775;51.564;5.460;2023-05-08T03:09:19;101740.44;;;12.97;100.00
58473;BME280;44775;51.564;5.460;2023-05-08T03:11:48;101747.00;;;13.03;100.00
58473;BME280;44775;51.564;5.460;2023-05-08T03:14:18;101742.94;;;12.99;100.00
58473;BME280;44775;51.564;5.460;2023-05-08T03:16:46;101739.28;;;13.00;100.00
58473;BME280;44775;51.564;5.460;2023-05-08T03:19:19;101740.78;;;13.03;100.00
58473;BME280;44775;51.564;5.460;2023-05-08T03:21:47;101736.91;;;12.97;100.00
58473;BME280;44775;51.564;5.460;2023-05-08T03:24:14;101739.75;;;12.95;100.00
58473;BME280;44775;51.564;5.460;2023-05-08T03:26:42;101736.91;;;12.97;100.00
58473;BME280;44775;51.564;5.460;2023-05-08T03:29:08;101742.94;;;12.99;100.00
58473;BME280;44775;51.564;5.460;2023-05-08T03:31:35;101735.91;;;12.98;100.00
58473;BME280;44775;51.564;5.460;2023-05-08T03:34:01;101735.56;;;13.01;100.00
58473;BME280;44775;51.564;5.460;2023-05-08T03:36:27;101741.13;;;12.99;100.00
58473;BME280;44775;51.564;5.460;2023-05-08T03:38:53;101739.75;;;12.95;100.00
58473;BME280;44775;51.564;5.460;2023-05-08T03:41:18;101736.06;;;12.96;100.00
58473;BME280;44775;51.564;5.460;2023-05-08T03:43:44;101736.72;;;12.90;100.00
58473;BME280;44775;51.564;5.460;2023-05-08T03:46:10;101729.00;;;12.87;100.00
58473;BME280;44775;51.564;5.460;2023-05-08T03:48:37;101731.31;;;12.82;100.00
58473;BME280;44775;51.564;5.460;2023-05-08T03:51:03;101725.28;;;12.80;100.00
58473;BME280;44775;51.564;5.460;2023-05-08T03:53:30;101719.88;;;12.72;100.00
58473;BME280;44775;51.564;5.460;2023-05-08T03:55:56;101724.38;;;12.63;100.00
58473;BME280;44775;51.564;5.460;2023-05-08T03:58:37;101732.41;;;12.63;100.00
58473;BME280;44775;51.564;5.460;2023-05-08T04:03:50;101732.25;;;12.65;100.00
58473;BME280;44775;51.564;5.460;2023-05-08T04:06:24;101727.72;;;12.65;100.00
58473;BME280;44775;51.564;5.460;2023-05-08T04:09:10;101730.78;;;12.70;100.00
58473;BME280;44775;51.564;5.460;2023-05-08T04:14:09;101730.56;;;12.64;100.00
58473;BME280;44775;51.564;5.460;2023-05-08T04:16:39;101736.94;;;12.63;100.00
58473;BME280;44775;51.564;5.460;2023-05-08T04:19:14;101736.56;;;12.58;100.00
58473;BME280;44775;51.564;5.460;2023-05-08T04:21:43;101735.00;;;12.47;100.00
58473;BME280;44775;51.564;5.460;2023-05-08T04:24:13;101741.53;;;12.44;100.00
58473;BME280;44775;51.564;5.460;2023-05-08T04:26:39;101741.19;;;12.39;100.00
58473;BME280;44775;51.564;5.460;2023-05-08T04:29:05;101748.91;;;12.42;100.00
58473;BME280;44775;51.564;5.460;2023-05-08T04:31:33;101750.25;;;12.46;100.00
58473;BME280;44775;51.564;5.460;2023-05-08T04:33:58;101746.88;;;12.44;100.00
58473;BME280;44775;51.564;5.460;2023-05-08T04:36:24;101751.41;;;12.44;100.00
58473;BME280;44775;51.564;5.460;2023-05-08T04:38:53;101757.59;;;12.44;100.00
58473;BME280;44775;51.564;5.460;2023-05-08T04:41:18;101745.34;;;12.42;100.00
58473;BME280;44775;51.564;5.460;2023-05-08T04:43:43;101756.16;;;12.50;100.00
58473;BME280;44775;51.564;5.460;2023-05-08T04:46:09;101747.25;;;12.49;100.00
58473;BME280;44775;51.564;5.460;2023-05-08T04:48:34;101756.16;;;12.58;100.00
58473;BME280;44775;51.564;5.460;2023-05-08T04:51:00;101759.91;;;12.65;100.00
58473;BME280;44775;51.564;5.460;2023-05-08T04:53:25;101758.59;;;12.69;100.00
58473;BME280;44775;51.564;5.460;2023-05-08T04:55:51;101759.25;;;12.71;100.00
58473;BME280;44775;51.564;5.460;2023-05-08T04:58:16;101761.47;;;12.76;100.00
58473;BME280;44775;51.564;5.460;2023-05-08T05:00:42;101764.69;;;12.80;100.00
58473;BME280;44775;51.564;5.460;2023-05-08T05:03:07;101771.91;;;12.87;100.00
58473;BME280;44775;51.564;5.460;2023-05-08T05:05:34;101768.91;;;12.90;100.00
58473;BME280;44775;51.564;5.460;2023-05-08T05:07:59;101775.63;;;12.94;100.00
58473;BME280;44775;51.564;5.460;2023-05-08T05:10:24;101778.81;;;12.98;100.00
58473;BME280;44775;51.564;5.460;2023-05-08T05:12:50;101781.19;;;13.01;100.00
58473;BME280;44775;51.564;5.460;2023-05-08T05:15:15;101785.53;;;13.02;100.00
58473;BME280;44775;51.564;5.460;2023-05-08T05:17:40;101788.41;;;13.00;100.00
58473;BME280;44775;51.564;5.460;2023-05-08T05:20:06;101784.38;;;13.05;100.00
58473;BME280;44775;51.564;5.460;2023-05-08T05:22:32;101792.97;;;13.08;100.00
58473;BME280;44775;51.564;5.460;2023-05-08T05:24:58;101800.53;;;13.13;100.00
58473;BME280;44775;51.564;5.460;2023-05-08T05:27:23;101802.03;;;13.15;100.00
58473;BME280;44775;51.564;5.460;2023-05-08T05:29:49;101803.75;;;13.16;100.00
58473;BME280;44775;51.564;5.460;2023-05-08T05:32:14;101798.19;;;13.18;100.00
58473;BME280;44775;51.564;5.460;2023-05-08T05:34:40;101802.41;;;13.20;100.00
58473;BME280;44775;51.564;5.460;2023-05-08T05:37:05;101806.97;;;13.28;100.00
58473;BME280;44775;51.564;5.460;2023-05-08T05:39:31;101807.66;;;13.30;100.00
58473;BME280;44775;51.564;5.460;2023-05-08T05:41:56;101808.84;;;13.36;100.00
58473;BME280;44775;51.564;5.460;2023-05-08T05:44:21;101812.38;;;13.36;100.00
58473;BME280;44775;51.564;5.460;2023-05-08T05:46:46;101807.34;;;13.41;100.00
58473;BME280;44775;51.564;5.460;2023-05-08T05:49:12;101813.75;;;13.40;100.00
58473;BME280;44775;51.564;5.460;2023-05-08T05:51:37;101813.75;;;13.40;100.00
58473;BME280;44775;51.564;5.460;2023-05-08T05:54:02;101811.38;;;13.45;100.00
58473;BME280;44775;51.564;5.460;2023-05-08T05:56:28;101818.47;;;13.55;100.00
58473;BME280;44775;51.564;5.460;2023-05-08T05:58:53;101819.47;;;13.54;100.00
58473;BME280;44775;51.564;5.460;2023-05-08T06:01:18;101821.34;;;13.61;100.00
58473;BME280;44775;51.564;5.460;2023-05-08T06:03:44;101826.91;;;13.68;100.00
58473;BME280;44775;51.564;5.460;2023-05-08T06:06:09;101824.22;;;13.76;100.00
58473;BME280;44775;51.564;5.460;2023-05-08T06:08:35;101821.38;;;13.78;100.00
58473;BME280;44775;51.564;5.460;2023-05-08T06:11:00;101817.84;;;13.85;100.00
58473;BME280;44775;51.564;5.460;2023-05-08T06:13:25;101821.22;;;13.96;100.00
58473;BME280;44775;51.564;5.460;2023-05-08T06:15:53;101819.88;;;14.08;100.00
58473;BME280;44775;51.564;5.460;2023-05-08T06:18:20;101819.88;;;14.16;100.00
58473;BME280;44775;51.564;5.460;2023-05-08T06:20:46;101825.59;;;14.21;100.00
58473;BME280;44775;51.564;5.460;2023-05-08T06:23:11;101825.25;;;14.32;100.00
58473;BME280;44775;51.564;5.460;2023-05-08T06:25:37;101826.56;;;14.36;100.00
58473;BME280;44775;51.564;5.460;2023-05-08T06:28:02;101827.09;;;14.56;100.00
58473;BME280;44775;51.564;5.460;2023-05-08T06:30:30;101818.81;;;14.74;100.00
58473;BME280;44775;51.564;5.460;2023-05-08T06:32:56;101818.78;;;14.82;100.00
58473;BME280;44775;51.564;5.460;2023-05-08T06:35:21;101829.19;;;14.94;100.00
58473;BME280;44775;51.564;5.460;2023-05-08T06:37:46;101826.09;;;15.05;100.00
58473;BME280;44775;51.564;5.460;2023-05-08T06:40:12;101833.19;;;15.06;100.00
58473;BME280;44775;51.564;5.460;2023-05-08T06:42:38;101834.44;;;15.26;100.00
58473;BME280;44775;51.564;5.460;2023-05-08T06:45:04;101842.19;;;15.29;100.00
58473;BME280;44775;51.564;5.460;2023-05-08T06:47:29;101843.84;;;15.30;100.00
58473;BME280;44775;51.564;5.460;2023-05-08T06:49:55;101846.69;;;15.37;100.00
58473;BME280;44775;51.564;5.460;2023-05-08T06:52:20;101847.03;;;15.34;100.00
58473;BME280;44775;51.564;5.460;2023-05-08T06:54:45;101855.44;;;15.39;100.00
58473;BME280;44775;51.564;5.460;2023-05-08T06:57:11;101855.09;;;15.34;100.00
58473;BME280;44775;51.564;5.460;2023-05-08T06:59:39;101852.94;;;15.29;100.00
58473;BME280;44775;51.564;5.460;2023-05-08T07:02:04;101855.44;;;15.31;100.00
58473;BME280;44775;51.564;5.460;2023-05-08T07:04:29;101854.81;;;15.29;100.00
58473;BME280;44775;51.564;5.460;2023-05-08T07:06:55;101860.19;;;15.29;100.00
58473;BME280;44775;51.564;5.460;2023-05-08T07:09:20;101861.03;;;15.29;100.00
58473;BME280;44775;51.564;5.460;2023-05-08T07:11:45;101861.31;;;15.34;100.00
58473;BME280;44775;51.564;5.460;2023-05-08T07:14:12;101868.03;;;15.39;100.00
58473;BME280;44775;51.564;5.460;2023-05-08T07:16:37;101870.72;;;15.39;100.00
58473;BME280;44775;51.564;5.460;2023-05-08T07:19:02;101866.38;;;15.38;100.00
58473;BME280;44775;51.564;5.460;2023-05-08T07:21:28;101861.88;;;15.30;100.00
58473;BME280;44775;51.564;5.460;2023-05-08T07:23:53;101866.06;;;15.32;100.00
58473;BME280;44775;51.564;5.460;2023-05-08T07:26:19;101861.16;;;15.36;100.00
58473;BME280;44775;51.564;5.460;2023-05-08T07:28:45;101865.72;;;15.35;100.00
58473;BME280;44775;51.564;5.460;2023-05-08T07:31:10;101870.03;;;15.45;100.00
58473;BME280;44775;51.564;5.460;2023-05-08T07:33:36;101859.09;;;15.46;100.00
58473;BME280;44775;51.564;5.460;2023-05-08T07:36:02;101862.28;;;15.50;100.00
58473;BME280;44775;51.564;5.460;2023-05-08T07:38:27;101865.63;;;15.52;100.00
58473;BME280;44775;51.564;5.460;2023-05-08T07:40:52;101874.38;;;15.54;100.00
58473;BME280;44775;51.564;5.460;2023-05-08T07:43:22;101870.50;;;15.48;100.00
58473;BME280;44775;51.564;5.460;2023-05-08T07:45:47;101862.75;;;15.53;100.00
58473;BME280;44775;51.564;5.460;2023-05-08T07:48:12;101858.22;;;15.54;100.00
58473;BME280;44775;51.564;5.460;2023-05-08T07:50:38;101863.53;;;15.70;100.00
58473;BME280;44775;51.564;5.460;2023-05-08T07:53:03;101858.69;;;15.89;100.00
58473;BME280;44775;51.564;5.460;2023-05-08T07:55:28;101862.47;;;16.25;100.00
58473;BME280;44775;51.564;5.460;2023-05-08T07:57:54;101866.06;;;16.41;100.00
58473;BME280;44775;51.564;5.460;2023-05-08T08:00:19;101873.69;;;16.52;100.00
58473;BME280;44775;51.564;5.460;2023-05-08T08:02:44;101867.59;;;16.73;100.00
58473;BME280;44775;51.564;5.460;2023-05-08T08:05:10;101872.38;;;17.00;100.00
58473;BME280;44775;51.564;5.460;2023-05-08T08:07:35;101869.75;;;17.37;100.00
58473;BME280;44775;51.564;5.460;2023-05-08T08:10:01;101869.19;;;17.56;100.00
58473;BME280;44775;51.564;5.460;2023-05-08T08:12:27;101868.84;;;17.81;100.00
58473;BME280;44775;51.564;5.460;2023-05-08T08:14:53;101867.59;;;18.20;100.00
58473;BME280;44775;51.564;5.460;2023-05-08T08:17:20;101870.53;;;18.46;100.00
58473;BME280;44775;51.564;5.460;2023-05-08T08:19:45;101871.16;;;18.76;100.00
58473;BME280;44775;51.564;5.460;2023-05-08T08:22:10;101872.81;;;19.05;100.00
58473;BME280;44775;51.564;5.460;2023-05-08T08:24:36;101876.03;;;19.64;100.00
58473;BME280;44775;51.564;5.460;2023-05-08T08:27:01;101871.31;;;19.86;100.00
58473;BME280;44775;51.564;5.460;2023-05-08T08:29:28;101877.19;;;20.02;100.00
58473;BME280;44775;51.564;5.460;2023-05-08T08:31:53;101870.69;;;19.90;100.00
58473;BME280;44775;51.564;5.460;2023-05-08T08:34:18;101871.38;;;20.25;99.13
58473;BME280;44775;51.564;5.460;2023-05-08T08:36:44;101863.00;;;20.34;100.00
58473;BME280;44775;51.564;5.460;2023-05-08T08:39:09;101868.25;;;20.28;100.00
58473;BME280;44775;51.564;5.460;2023-05-08T08:41:34;101864.88;;;20.20;100.00
58473;BME280;44775;51.564;5.460;2023-05-08T08:44:00;101861.34;;;20.13;100.00
58473;BME280;44775;51.564;5.460;2023-05-08T08:46:26;101870.31;;;20.80;100.00
58473;BME280;44775;51.564;5.460;2023-05-08T08:48:54;101876.16;;;20.43;98.84
58473;BME280;44775;51.564;5.460;2023-05-08T08:51:37;101877.03;;;20.70;100.00
58473;BME280;44775;51.564;5.460;2023-05-08T08:54:12;101872.84;;;20.68;100.00
58473;BME280;44775;51.564;5.460;2023-05-08T08:56:39;101869.91;;;20.83;94.14
58473;BME280;44775;51.564;5.460;2023-05-08T08:59:07;101863.88;;;21.32;97.50
58473;BME280;44775;51.564;5.460;2023-05-08T09:01:34;101869.97;;;21.79;78.21
58473;BME280;44775;51.564;5.460;2023-05-08T09:04:02;101869.34;;;22.15;88.83
58473;BME280;44775;51.564;5.460;2023-05-08T09:06:29;101872.53;;;22.06;90.43
58473;BME280;44775;51.564;5.460;2023-05-08T09:08:55;101880.88;;;22.18;79.26
58473;BME280;44775;51.564;5.460;2023-05-08T09:11:22;101872.47;;;22.19;87.15
58473;BME280;44775;51.564;5.460;2023-05-08T09:13:47;101880.13;;;21.97;79.53
58473;BME280;44775;51.564;5.460;2023-05-08T09:16:12;101875.84;;;21.76;81.52
58473;BME280;44775;51.564;5.460;2023-05-08T09:18:38;101871.06;;;21.72;87.06
58473;BME280;44775;51.564;5.460;2023-05-08T09:21:05;101882.25;;;21.57;87.21
58473;BME280;44775;51.564;5.460;2023-05-08T09:23:30;101879.78;;;21.29;89.49
58473;BME280;44775;51.564;5.460;2023-05-08T09:25:55;101874.47;;;20.82;92.43
58473;BME280;44775;51.564;5.460;2023-05-08T09:28:23;101882.47;;;20.64;93.49
58473;BME280;44775;51.564;5.460;2023-05-08T09:30:54;101878.47;;;20.46;99.76
58473;BME280;44775;51.564;5.460;2023-05-08T09:33:21;101869.22;;;19.94;99.03
58473;BME280;44775;51.564;5.460;2023-05-08T09:35:47;101873.84;;;20.07;100.00
58473;BME280;44775;51.564;5.460;2023-05-08T09:38:34;101876.59;;;20.40;100.00
58473;BME280;44775;51.564;5.460;2023-05-08T09:41:14;101869.69;;;20.84;97.61
58473;BME280;44775;51.564;5.460;2023-05-08T09:43:41;101868.03;;;20.83;96.01
58473;BME280;44775;51.564;5.460;2023-05-08T09:48:52;101883.38;;;21.22;95.60
58473;BME280;44775;51.564;5.460;2023-05-08T09:51:18;101879.38;;;21.38;93.63
58473;BME280;44775;51.564;5.460;2023-05-08T09:53:43;101875.00;;;21.37;91.89
58473;BME280;44775;51.564;5.460;2023-05-08T09:56:09;101873.94;;;21.38;96.52
58473;BME280;44775;51.564;5.460;2023-05-08T09:58:38;101876.16;;;20.96;90.49
58473;BME280;44775;51.564;5.460;2023-05-08T10:01:05;101883.16;;;21.24;84.69
58473;BME280;44775;51.564;5.460;2023-05-08T10:03:47;101877.66;;;21.51;93.37
58473;BME280;44775;51.564;5.460;2023-05-08T10:06:13;101883.16;;;21.24;88.14
58473;BME280;44775;51.564;5.460;2023-05-08T10:08:39;101878.47;;;21.58;91.44
58473;BME280;44775;51.564;5.460;2023-05-08T10:11:15;101876.28;;;21.73;91.10
58473;BME280;44775;51.564;5.460;2023-05-08T10:13:41;101873.25;;;21.50;85.17
58473;BME280;44775;51.564;5.460;2023-05-08T10:16:13;101873.34;;;21.30;84.34
58473;BME280;44775;51.564;5.460;2023-05-08T10:18:43;101875.94;;;20.85;93.98
58473;BME280;44775;51.564;5.460;2023-05-08T10:21:10;101885.78;;;20.39;91.52
58473;BME280;44775;51.564;5.460;2023-05-08T10:23:36;101877.59;;;19.99;100.00
58473;BME280;44775;51.564;5.460;2023-05-08T10:26:09;101879.44;;;19.86;100.00
58473;BME280;44775;51.564;5.460;2023-05-08T10:31:06;101870.94;;;19.54;100.00
58473;BME280;44775;51.564;5.460;2023-05-08T10:33:33;101876.41;;;19.61;100.00
58473;BME280;44775;51.564;5.460;2023-05-08T10:35:59;101879.59;;;19.71;100.00
58473;BME280;44775;51.564;5.460;2023-05-08T10:38:25;101877.75;;;19.78;100.00
58473;BME280;44775;51.564;5.460;2023-05-08T10:40:52;101877.75;;;19.78;100.00
58473;BME280;44775;51.564;5.460;2023-05-08T10:43:23;101880.50;;;19.85;96.54
58473;BME280;44775;51.564;5.460;2023-05-08T10:45:49;101876.50;;;19.87;100.00
58473;BME280;44775;51.564;5.460;2023-05-08T10:48:37;101876.53;;;19.94;100.00
58473;BME280;44775;51.564;5.460;2023-05-08T10:51:21;101877.97;;;19.83;100.00
58473;BME280;44775;51.564;5.460;2023-05-08T10:53:58;101869.78;;;19.70;100.00
58473;BME280;44775;51.564;5.460;2023-05-08T10:56:26;101867.78;;;19.92;100.00
58473;BME280;44775;51.564;5.460;2023-05-08T10:58:58;101867.59;;;20.40;100.00
58473;BME280;44775;51.564;5.460;2023-05-08T11:01:25;101868.44;;;20.80;96.65
58473;BME280;44775;51.564;5.460;2023-05-08T11:03:50;101871.25;;;21.25;91.15
58473;BME280;44775;51.564;5.460;2023-05-08T11:06:18;101861.59;;;21.29;94.29
58473;BME280;44775;51.564;5.460;2023-05-08T11:09:02;101866.78;;;21.51;92.90
58473;BME280;44775;51.564;5.460;2023-05-08T11:11:29;101862.28;;;21.69;95.47
58473;BME280;44775;51.564;5.460;2023-05-08T11:14:09;101869.72;;;21.87;90.39
58473;BME280;44775;51.564;5.460;2023-05-08T11:19:25;101854.22;;;22.20;86.66
58473;BME280;44775;51.564;5.460;2023-05-08T11:24:36;101850.34;;;22.59;85.86
58473;BME280;44775;51.564;5.460;2023-05-08T11:27:02;101853.97;;;22.53;88.52
58473;BME280;44775;51.564;5.460;2023-05-08T11:29:27;101849.34;;;22.28;82.21
58473;BME280;44775;51.564;5.460;2023-05-08T11:31:52;101844.94;;;22.27;82.06
58473;BME280;44775;51.564;5.460;2023-05-08T11:37:22;101838.50;;;21.90;86.70
58473;BME280;44775;51.564;5.460;2023-05-08T11:39:53;101839.88;;;22.06;87.03
58473;BME280;44775;51.564;5.460;2023-05-08T11:45:13;101840.41;;;23.08;85.50
58473;BME280;44775;51.564;5.460;2023-05-08T11:47:43;101839.56;;;23.74;79.89
58473;BME280;44775;51.564;5.460;2023-05-08T11:50:10;101843.09;;;24.05;73.10
58473;BME280;44775;51.564;5.460;2023-05-08T11:52:38;101841.09;;;24.12;71.32
58473;BME280;44775;51.564;5.460;2023-05-08T11:55:05;101842.00;;;24.71;68.36
58473;BME280;44775;51.564;5.460;2023-05-08T11:57:32;101842.41;;;25.15;66.18
58473;BME280;44775;51.564;5.460;2023-05-08T12:00:07;101835.44;;;24.72;69.52
58473;BME280;44775;51.564;5.460;2023-05-08T12:02:43;101833.53;;;24.85;67.91
58473;BME280;44775;51.564;5.460;2023-05-08T12:05:11;101830.72;;;25.60;62.49
58473;BME280;44775;51.564;5.460;2023-05-08T12:07:45;101833.47;;;25.89;67.28
58473;BME280;44775;51.564;5.460;2023-05-08T12:10:12;101823.09;;;25.62;65.99
58473;BME280;44775;51.564;5.460;2023-05-08T12:12:39;101824.50;;;25.36;62.31
58473;BME280;44775;51.564;5.460;2023-05-08T12:15:09;101831.09;;;25.81;63.14
58473;BME280;44775;51.564;5.460;2023-05-08T12:17:34;101821.75;;;26.10;56.67
58473;BME280;44775;51.564;5.460;2023-05-08T12:20:14;101822.91;;;26.65;57.79
58473;BME280;44775;51.564;5.460;2023-05-08T12:22:40;101822.50;;;26.56;61.63
58473;BME280;44775;51.564;5.460;2023-05-08T12:25:07;101824.00;;;26.86;55.23
58473;BME280;44775;51.564;5.460;2023-05-08T12:27:35;101817.28;;;27.16;55.34
58473;BME280;44775;51.564;5.460;2023-05-08T12:30:04;101820.56;;;27.40;52.46
58473;BME280;44775;51.564;5.460;2023-05-08T12:32:31;101816.56;;;27.25;52.41
58473;BME280;44775;51.564;5.460;2023-05-08T12:34:57;101815.59;;;26.71;53.07
58473;BME280;44775;51.564;5.460;2023-05-08T12:37:26;101809.47;;;26.30;52.75
58473;BME280;44775;51.564;5.460;2023-05-08T12:39:51;101809.69;;;25.20;54.68
58473;BME280;44775;51.564;5.460;2023-05-08T12:42:16;101801.69;;;25.31;58.01
58473;BME280;44775;51.564;5.460;2023-05-08T12:44:49;101801.44;;;25.78;56.11
58473;BME280;44775;51.564;5.460;2023-05-08T12:47:17;101792.56;;;25.99;57.85
58473;BME280;44775;51.564;5.460;2023-05-08T12:49:42;101793.59;;;25.81;56.28
58473;BME280;44775;51.564;5.460;2023-05-08T12:52:11;101789.91;;;25.59;57.90
58473;BME280;44775;51.564;5.460;2023-05-08T12:54:47;101785.16;;;26.00;57.84
58473;BME280;44775;51.564;5.460;2023-05-08T12:57:17;101783.63;;;26.43;52.65
58473;BME280;44775;51.564;5.460;2023-05-08T12:59:44;101784.41;;;26.21;51.94
58473;BME280;44775;51.564;5.460;2023-05-08T13:02:20;101770.88;;;25.98;51.39
58473;BME280;44775;51.564;5.460;2023-05-08T13:04:47;101776.44;;;25.86;52.63
58473;BME280;44775;51.564;5.460;2023-05-08T13:07:17;101764.88;;;25.10;56.03
58473;BME280;44775;51.564;5.460;2023-05-08T13:09:59;101767.47;;;25.28;57.92
58473;BME280;44775;51.564;5.460;2023-05-08T13:12:27;101766.63;;;24.87;54.37
58473;BME280;44775;51.564;5.460;2023-05-08T13:14:53;101763.03;;;24.87;52.98
58473;BME280;44775;51.564;5.460;2023-05-08T13:17:18;101759.25;;;24.76;53.98
58473;BME280;44775;51.564;5.460;2023-05-08T13:19:43;101766.97;;;25.31;54.94
58473;BME280;44775;51.564;5.460;2023-05-08T13:22:09;101765.50;;;25.57;50.96